Time;durP1;ratioP1;P1;durP2;ratioP2;P2;SDS_P1;SDS_P2;PMS_P1;PMS_P2;Temp;Humidity;BMP_temperature;BMP_pressure;BME280_temperature;BME280_humidity;BME280_pressure;Samples;Min_cycle;Max_cycle;Signal;HPM_P1;HPM_P2
2020/12/23 00:01:04;;;;;;;5.43;3.70;;;;;;;9.57;97.26;99730.33;1764237;78;26239;-79
2020/12/23 00:03:33;;;;;;;5.63;4.20;;;;;;;9.58;97.23;99735.96;1779275;80;25153;-79
2020/12/23 00:05:59;;;;;;;6.53;4.57;;;;;;;9.58;97.03;99734.17;1761387;81;26219;-79
2020/12/23 00:08:26;;;;;;;5.53;4.30;;;;;;;9.54;97.16;99719.59;1761397;81;25316;-78
2020/12/23 00:10:53;;;;;;;6.17;4.10;;;;;;;9.56;97.13;99721.63;1761295;80;25208;-79
2020/12/23 00:13:20;;;;;;;8.40;4.90;;;;;;;9.50;97.21;99723.86;1761454;80;25243;-79
2020/12/23 00:15:46;;;;;;;9.27;5.40;;;;;;;9.46;97.26;99720.13;1761635;81;26247;-79
2020/12/23 00:18:13;;;;;;;6.20;4.50;;;;;;;9.47;97.21;99722.30;1761665;81;25116;-79
2020/12/23 00:20:40;;;;;;;9.53;4.97;;;;;;;9.46;97.33;99714.05;1761594;81;26322;-78
2020/12/23 00:23:06;;;;;;;10.30;5.80;;;;;;;9.44;97.27;99697.09;1761663;80;26227;-79
2020/12/23 00:25:33;;;;;;;8.33;6.33;;;;;;;9.42;97.24;99703.42;1761765;80;26234;-79
2020/12/23 00:28:00;;;;;;;18.60;11.30;;;;;;;9.40;97.25;99710.55;1761616;80;25209;-78
2020/12/23 00:30:27;;;;;;;20.17;12.40;;;;;;;9.40;97.23;99727.16;1761659;80;26630;-77
2020/12/23 00:32:53;;;;;;;23.27;13.07;;;;;;;9.35;97.16;99724.47;1761666;80;26250;-78
2020/12/23 00:35:20;;;;;;;21.93;11.63;;;;;;;9.31;97.20;99736.98;1761789;80;26334;-78
2020/12/23 00:37:47;;;;;;;24.40;12.40;;;;;;;9.25;97.30;99735.63;1761670;80;25267;-79
2020/12/23 00:40:14;;;;;;;22.97;11.67;;;;;;;9.23;97.30;99733.59;1761500;81;25093;-78
2020/12/23 00:42:40;;;;;;;20.97;11.47;;;;;;;9.21;97.35;99739.41;1761710;81;26306;-78
2020/12/23 00:45:07;;;;;;;19.87;10.37;;;;;;;9.20;97.38;99734.26;1761673;81;25062;-78
2020/12/23 00:47:33;;;;;;;16.00;9.50;;;;;;;9.21;97.45;99749.91;1736019;80;26243;-79
2020/12/23 00:50:00;;;;;;;16.00;9.17;;;;;;;9.25;97.40;99758.39;1761576;80;26377;-78
2020/12/23 00:52:27;;;;;;;16.27;9.13;;;;;;;9.24;97.20;99757.56;1761547;80;25090;-78
2020/12/23 00:54:54;;;;;;;12.20;7.90;;;;;;;9.23;97.15;99757.22;1761589;80;26641;-78
2020/12/23 00:57:22;;;;;;;11.83;7.30;;;;;;;9.20;97.17;99753.48;1761237;81;25575;-79
2020/12/23 00:59:49;;;;;;;10.43;6.20;;;;;;;9.19;97.14;99742.62;1761667;80;26317;-79
2020/12/23 01:02:16;;;;;;;8.10;5.63;;;;;;;9.15;97.18;99737.69;1761572;80;26646;-79
2020/12/23 01:04:43;;;;;;;8.40;5.70;;;;;;;9.17;97.20;99751.08;1761622;80;26123;-79
2020/12/23 01:07:10;;;;;;;6.47;5.40;;;;;;;9.19;97.18;99768.86;1761549;80;26152;-79
2020/12/23 01:09:36;;;;;;;8.90;5.60;;;;;;;9.18;97.22;99763.23;1761581;80;26642;-79
2020/12/23 01:12:03;;;;;;;9.07;5.67;;;;;;;9.20;97.18;99769.23;1759659;80;26349;-79
2020/12/23 01:14:30;;;;;;;6.23;4.90;;;;;;;9.20;97.23;99773.63;1755855;80;26175;-79
2020/12/23 01:16:56;;;;;;;10.40;5.80;;;;;;;9.19;97.20;99762.30;1755726;80;26322;-79
2020/12/23 01:19:23;;;;;;;8.30;5.73;;;;;;;9.16;97.26;99755.12;1755689;81;25230;-79
2020/12/23 01:21:50;;;;;;;7.83;5.10;;;;;;;9.17;97.28;99751.08;1755667;81;26373;-78
2020/12/23 01:24:17;;;;;;;6.47;5.13;;;;;;;9.19;97.26;99755.73;1755701;81;26242;-78
2020/12/23 01:26:44;;;;;;;7.20;5.20;;;;;;;9.19;97.25;99750.97;1755626;80;26298;-78
2020/12/23 01:29:10;;;;;;;8.73;6.00;;;;;;;9.20;97.28;99746.93;1755643;80;26283;-78
2020/12/23 01:31:41;;;;;;;8.90;6.77;;;;;;;9.21;97.24;99760.40;1755535;80;26236;-78
2020/12/23 01:34:08;;;;;;;12.90;7.93;;;;;;;9.25;97.23;99766.27;1755752;80;25492;-78
2020/12/23 01:36:35;;;;;;;12.93;8.97;;;;;;;9.27;97.03;99769.16;1755721;80;25133;-78
2020/12/23 01:39:02;;;;;;;10.60;8.10;;;;;;;9.24;97.00;99762.81;1755542;81;25648;-78
2020/12/23 01:41:28;;;;;;;11.83;7.73;;;;;;;9.24;97.05;99762.81;1755653;80;26236;-78
2020/12/23 01:43:56;;;;;;;11.53;7.40;;;;;;;9.27;97.02;99765.72;1755679;80;25726;-78
2020/12/23 01:46:34;;;;;;;11.07;7.23;;;;;;;9.31;96.80;99761.08;1755767;80;25743;-78
2020/12/23 01:49:05;;;;;;;11.93;9.00;;;;;;;9.27;96.69;99769.65;1755665;80;26239;-78
2020/12/23 01:51:40;;;;;;;15.70;11.17;;;;;;;9.29;96.58;99762.50;1822673;76;26437;-78
2020/12/23 01:54:07;;;;;;;14.83;11.03;;;;;;;9.22;96.56;99757.33;1787603;80;26268;-77
2020/12/23 01:56:33;;;;;;;14.23;12.20;;;;;;;9.22;96.62;99754.70;1787487;79;25330;-77
2020/12/23 01:59:00;;;;;;;17.90;13.37;;;;;;;9.25;96.64;99742.65;1757170;80;25085;-77
2020/12/23 02:01:28;;;;;;;15.13;11.40;;;;;;;9.24;96.44;99758.88;1787602;79;26290;-77
2020/12/23 02:03:55;;;;;;;13.23;9.73;;;;;;;9.24;96.32;99775.94;1782847;79;26287;-77
2020/12/23 02:06:21;;;;;;;9.83;7.83;;;;;;;9.22;96.23;99784.39;1787459;79;26304;-76
2020/12/23 02:08:49;;;;;;;12.73;9.10;;;;;;;9.20;96.19;99782.36;1787491;79;25060;-77
2020/12/23 02:11:17;;;;;;;14.73;8.60;;;;;;;9.21;96.19;99786.64;1787328;79;26287;-77
2020/12/23 02:13:44;;;;;;;15.03;10.10;;;;;;;9.21;96.08;99791.06;1787577;80;25245;-78
2020/12/23 02:16:13;;;;;;;18.00;12.27;;;;;;;9.21;95.94;99784.02;1787544;80;25226;-77
2020/12/23 02:18:40;;;;;;;9.60;7.53;;;;;;;9.20;95.82;99775.80;1787481;80;26220;-77
2020/12/23 02:21:07;;;;;;;9.43;6.73;;;;;;;9.19;95.45;99780.67;1787405;79;25123;-78
2020/12/23 02:23:33;;;;;;;9.93;7.10;;;;;;;9.14;95.37;99765.72;1787418;80;26259;-77
2020/12/23 02:26:00;;;;;;;9.10;6.67;;;;;;;9.09;95.48;99766.03;1782726;79;25674;-77
2020/12/23 02:28:26;;;;;;;11.37;7.47;;;;;;;9.07;95.48;99765.30;1787607;79;25341;-79
2020/12/23 02:30:59;;;;;;;6.07;4.93;;;;;;;9.06;95.46;99773.28;1787387;79;25370;-79
2020/12/23 02:33:26;;;;;;;8.23;4.80;;;;;;;9.02;95.27;99779.21;1787549;79;25194;-78
2020/12/23 02:35:53;;;;;;;5.30;4.27;;;;;;;9.01;95.41;99777.52;1787475;80;26319;-78
2020/12/23 02:38:19;;;;;;;5.40;4.17;;;;;;;9.00;95.10;99780.25;1787488;79;25593;-77
2020/12/23 02:40:46;;;;;;;6.63;4.93;;;;;;;8.95;95.15;99782.34;1787488;80;25316;-77
2020/12/23 02:43:13;;;;;;;10.40;5.67;;;;;;;8.93;95.23;99784.24;1787545;79;26362;-78
2020/12/23 02:45:39;;;;;;;5.90;4.80;;;;;;;8.93;95.25;99779.83;1787548;79;25616;-77
2020/12/23 02:48:06;;;;;;;9.33;5.23;;;;;;;8.94;95.23;99776.27;1787436;79;26306;-77
2020/12/23 02:50:33;;;;;;;6.00;4.60;;;;;;;8.94;95.03;99784.14;1787296;78;25267;-78
2020/12/23 02:52:59;;;;;;;5.50;4.63;;;;;;;8.91;94.90;99786.52;1787553;79;25320;-78
2020/12/23 02:55:26;;;;;;;6.90;4.53;;;;;;;8.89;94.82;99780.52;1787690;79;26311;-78
2020/12/23 02:57:52;;;;;;;7.80;5.60;;;;;;;8.88;94.66;99782.78;1787513;80;25816;-78
2020/12/23 03:00:19;;;;;;;7.27;5.73;;;;;;;8.88;94.78;99781.48;1787337;80;26306;-78
2020/12/23 03:02:46;;;;;;;7.93;5.73;;;;;;;8.87;94.71;99777.16;1786878;80;26324;-78
2020/12/23 03:05:12;;;;;;;7.10;5.57;;;;;;;8.87;94.64;99781.58;1786896;79;25664;-78
2020/12/23 03:07:39;;;;;;;10.00;5.60;;;;;;;8.82;94.52;99780.57;1786924;80;26228;-78
2020/12/23 03:10:06;;;;;;;10.07;6.23;;;;;;;8.81;94.58;99771.50;1786900;79;25277;-78
2020/12/23 03:12:32;;;;;;;8.03;6.10;;;;;;;8.82;94.62;99772.70;1786857;79;26770;-77
2020/12/23 03:14:59;;;;;;;8.63;5.13;;;;;;;8.85;94.45;99779.54;1786927;79;26364;-78
2020/12/23 03:17:26;;;;;;;9.40;6.03;;;;;;;8.84;93.57;99773.43;1786834;79;26818;-78
2020/12/23 03:19:52;;;;;;;7.90;5.90;;;;;;;8.78;93.79;99769.08;1787013;79;26208;-79
2020/12/23 03:22:21;;;;;;;8.53;6.10;;;;;;;8.78;93.89;99754.66;1756444;80;25194;-79
2020/12/23 03:24:48;;;;;;;9.60;5.30;;;;;;;8.79;93.73;99755.03;1786882;80;25621;-79
2020/12/23 03:27:14;;;;;;;6.83;4.80;;;;;;;8.79;93.37;99754.55;1786827;79;26279;-78
2020/12/23 03:29:41;;;;;;;5.33;4.07;;;;;;;8.78;93.42;99759.89;1786915;79;25187;-79
2020/12/23 03:32:07;;;;;;;6.97;4.30;;;;;;;8.76;93.37;99757.37;1786938;80;25270;-79
2020/12/23 03:34:34;;;;;;;5.10;4.23;;;;;;;8.76;93.46;99757.86;1786937;79;25217;-79
2020/12/23 03:37:01;;;;;;;7.17;4.00;;;;;;;8.75;93.35;99757.48;1786872;79;25233;-79
2020/12/23 03:39:27;;;;;;;4.77;3.80;;;;;;;8.76;93.39;99753.44;1722954;80;26387;-79
2020/12/23 03:41:54;;;;;;;6.57;4.40;;;;;;;8.79;93.39;99753.23;1786890;79;26778;-79
2020/12/23 03:44:21;;;;;;;6.00;4.50;;;;;;;8.79;93.30;99762.90;1786871;79;26240;-79
2020/12/23 03:46:47;;;;;;;5.97;4.40;;;;;;;8.81;93.26;99753.97;1786939;79;25269;-79
2020/12/23 03:49:14;;;;;;;5.83;4.43;;;;;;;8.84;93.17;99759.00;1786792;80;25684;-78
2020/12/23 03:51:40;;;;;;;6.30;4.87;;;;;;;8.86;93.09;99763.67;1793493;78;26366;-78
2020/12/23 03:54:07;;;;;;;6.37;4.03;;;;;;;8.88;93.04;99779.30;1795878;79;26295;-78
2020/12/23 03:56:34;;;;;;;5.00;3.70;;;;;;;8.91;92.79;99774.72;1795911;79;25260;-78
2020/12/23 03:59:00;;;;;;;5.37;4.37;;;;;;;8.90;92.60;99784.00;1795850;78;25288;-78
2020/12/23 04:01:27;;;;;;;5.83;4.83;;;;;;;8.89;92.66;99780.99;1795747;79;26303;-78
2020/12/23 04:03:54;;;;;;;5.37;4.43;;;;;;;8.90;92.65;99767.78;1795723;79;25265;-78
2020/12/23 04:06:20;;;;;;;6.57;5.13;;;;;;;8.91;92.57;99782.59;1795737;78;26639;-77
2020/12/23 04:08:47;;;;;;;7.53;5.23;;;;;;;8.93;92.49;99780.31;1795873;78;25250;-78
2020/12/23 04:11:14;;;;;;;7.43;5.80;;;;;;;8.91;92.37;99781.27;1795888;79;25328;-78
2020/12/23 04:13:40;;;;;;;8.17;6.33;;;;;;;8.92;92.32;99779.48;1768747;79;26291;-78
2020/12/23 04:16:07;;;;;;;8.17;7.27;;;;;;;8.93;92.30;99781.63;1795806;78;25735;-78
2020/12/23 04:18:33;;;;;;;8.27;6.87;;;;;;;8.91;92.30;99773.41;1795864;78;25221;-78
2020/12/23 04:21:00;;;;;;;6.90;5.20;;;;;;;8.86;92.19;99779.41;1795814;79;25114;-79
2020/12/23 04:23:27;;;;;;;6.60;4.50;;;;;;;8.86;92.35;99781.20;1795668;78;25373;-79
2020/12/23 04:25:53;;;;;;;7.67;5.73;;;;;;;8.86;92.35;99789.90;1795659;79;25189;-79
2020/12/23 04:28:20;;;;;;;5.93;4.50;;;;;;;8.88;92.38;99792.42;1795823;79;26231;-79
2020/12/23 04:30:47;;;;;;;8.47;4.90;;;;;;;8.90;92.33;99790.55;1795852;79;25424;-78
2020/12/23 04:33:15;;;;;;;6.23;5.10;;;;;;;8.89;92.27;99792.31;1795610;78;25276;-79
2020/12/23 04:35:42;;;;;;;6.97;5.33;;;;;;;8.92;92.29;99801.78;1795722;79;25233;-78
2020/12/23 04:38:08;;;;;;;6.50;4.60;;;;;;;8.91;92.22;99800.95;1795786;79;25245;-78
2020/12/23 04:40:39;;;;;;;5.33;3.90;;;;;;;8.96;92.13;99805.02;1795805;78;25282;-79
2020/12/23 04:43:03;;;;;;;4.47;3.77;;;;;;;8.94;92.02;99799.88;1794718;78;25755;-78
2020/12/23 04:45:30;;;;;;;5.30;3.80;;;;;;;8.89;91.97;99797.56;1795826;79;25719;-78
2020/12/23 04:47:57;;;;;;;4.77;4.00;;;;;;;8.85;91.97;99796.11;1795854;78;25341;-78
2020/12/23 04:50:24;;;;;;;7.37;4.70;;;;;;;8.86;91.99;99796.45;1794949;78;25759;-78
2020/12/23 04:52:51;;;;;;;6.37;4.93;;;;;;;8.87;92.00;99787.66;1786787;79;25202;-78
2020/12/23 04:55:17;;;;;;;5.97;5.30;;;;;;;8.83;91.90;99788.82;1786780;80;25286;-78
2020/12/23 04:57:44;;;;;;;8.13;5.77;;;;;;;8.78;91.95;99780.87;1786795;80;26718;-78
2020/12/23 05:00:11;;;;;;;6.07;5.17;;;;;;;8.73;91.98;99778.56;1786841;79;25340;-78
2020/12/23 05:02:37;;;;;;;8.53;6.67;;;;;;;8.69;92.10;99786.27;1756201;79;26316;-78
2020/12/23 05:05:04;;;;;;;14.03;7.67;;;;;;;8.64;92.18;99792.30;1786777;80;26299;-78
2020/12/23 05:07:31;;;;;;;15.63;10.97;;;;;;;8.64;92.34;99796.23;1786826;79;25676;-77
2020/12/23 05:09:57;;;;;;;13.70;10.63;;;;;;;8.63;92.41;99799.79;1786737;80;26291;-78
2020/12/23 05:12:24;;;;;;;17.33;12.10;;;;;;;8.66;92.53;99796.48;1786620;80;25352;-77
2020/12/23 05:14:51;;;;;;;20.80;12.77;;;;;;;8.65;92.44;99803.17;1786869;80;25273;-78
2020/12/23 05:17:17;;;;;;;17.20;12.33;;;;;;;8.63;92.57;99801.09;1769326;80;25740;-78
2020/12/23 05:19:45;;;;;;;21.90;14.10;;;;;;;8.63;92.66;99796.72;1786776;79;26358;-78
2020/12/23 05:22:15;;;;;;;17.43;12.97;;;;;;;8.65;92.60;99800.06;1786827;79;26280;-79
2020/12/23 05:24:42;;;;;;;19.63;14.10;;;;;;;8.64;92.65;99798.86;1786749;79;25076;-79
2020/12/23 05:27:09;;;;;;;18.63;12.57;;;;;;;8.65;92.66;99803.17;1786769;79;26335;-78
2020/12/23 05:29:35;;;;;;;17.20;13.17;;;;;;;8.64;92.58;99800.17;1786831;80;26263;-78
2020/12/23 05:32:03;;;;;;;16.10;11.77;;;;;;;8.56;92.55;99796.73;1786595;79;26367;-78
2020/12/23 05:34:34;;;;;;;19.40;12.37;;;;;;;8.56;92.76;99801.15;1786887;80;26280;-77
2020/12/23 05:37:03;;;;;;;15.53;11.80;;;;;;;8.56;92.74;99798.53;1786821;80;25242;-78
2020/12/23 05:39:31;;;;;;;16.10;12.27;;;;;;;8.50;92.76;99805.86;1786554;79;26331;-77
2020/12/23 05:41:59;;;;;;;14.73;11.47;;;;;;;8.49;92.89;99812.51;1786789;80;25301;-78
2020/12/23 05:44:26;;;;;;;16.43;12.43;;;;;;;8.46;92.94;99805.70;1786869;79;26280;-77
2020/12/23 05:46:54;;;;;;;18.00;13.77;;;;;;;8.42;92.99;99807.28;1786827;79;26339;-78
2020/12/23 05:49:23;;;;;;;19.70;13.17;;;;;;;8.40;93.17;99799.99;1786803;80;25587;-79
2020/12/23 05:51:52;;;;;;;18.80;14.40;;;;;;;8.43;93.26;99803.28;1791269;79;25707;-78
2020/12/23 05:54:19;;;;;;;17.60;14.73;;;;;;;8.39;93.19;99795.68;1795783;79;25268;-78
2020/12/23 05:56:51;;;;;;;17.17;15.13;;;;;;;8.33;93.20;99796.94;1795683;78;25106;-79
2020/12/23 05:59:20;;;;;;;19.57;15.27;;;;;;;8.27;93.34;99800.78;1795566;78;26093;-79
2020/12/23 06:01:48;;;;;;;19.60;15.30;;;;;;;8.27;93.53;99809.95;1795746;79;26299;-79
2020/12/23 06:04:15;;;;;;;17.47;14.90;;;;;;;8.29;93.64;99802.82;1769923;79;25500;-77
2020/12/23 06:06:44;;;;;;;18.80;15.63;;;;;;;8.29;93.63;99799.37;1795833;79;25304;-78
2020/12/23 06:09:14;;;;;;;21.43;19.13;;;;;;;8.26;93.69;99786.02;1795681;78;26306;-78
2020/12/23 06:11:47;;;;;;;23.40;19.60;;;;;;;8.24;93.76;99794.91;1795669;78;25135;-78
2020/12/23 06:14:25;;;;;;;20.40;18.23;;;;;;;8.24;93.86;99788.35;1795686;78;26346;-78
2020/12/23 06:17:05;;;;;;;20.63;18.17;;;;;;;8.22;93.86;99797.62;1795563;79;26180;-78
2020/12/23 06:19:37;;;;;;;16.57;14.53;;;;;;;8.20;93.84;99794.75;1795890;79;25210;-80
2020/12/23 06:22:09;;;;;;;16.10;13.37;;;;;;;8.21;94.09;99790.72;1795638;78;26773;-77
2020/12/23 06:24:36;;;;;;;14.93;12.93;;;;;;;8.25;94.14;99793.49;1795872;79;25118;-78
2020/12/23 06:27:05;;;;;;;11.43;9.87;;;;;;;8.27;94.01;99789.47;1795645;79;26820;-78
2020/12/23 06:29:39;;;;;;;13.93;10.60;;;;;;;8.22;93.95;99787.14;1795770;78;26323;-78
2020/12/23 06:32:10;;;;;;;15.00;12.40;;;;;;;8.15;93.97;99786.70;1795617;79;26200;-78
2020/12/23 06:34:39;;;;;;;14.47;11.37;;;;;;;8.09;94.03;99788.39;1795765;78;25293;-78
2020/12/23 06:37:21;;;;;;;13.43;11.13;;;;;;;8.12;94.26;99800.47;1795779;78;26714;-76
2020/12/23 06:39:48;;;;;;;12.73;9.70;;;;;;;8.15;94.33;99793.25;1796014;78;26303;-78
2020/12/23 06:42:20;;;;;;;13.03;10.33;;;;;;;8.12;94.21;99802.61;1795720;79;25166;-79
2020/12/23 06:45:07;;;;;;;10.50;9.40;;;;;;;8.11;94.34;99804.88;1795927;79;25249;-78
2020/12/23 06:47:35;;;;;;;12.30;10.23;;;;;;;8.18;94.49;99811.88;1795916;78;25301;-78
2020/12/23 06:50:16;;;;;;;11.97;9.70;;;;;;;8.22;94.48;99802.86;1795222;78;25288;-78
2020/12/23 06:52:45;;;;;;;12.07;9.23;;;;;;;8.25;94.39;99808.38;1789226;78;26283;-78
2020/12/23 06:55:14;;;;;;;9.20;8.30;;;;;;;8.23;94.35;99809.79;1786877;80;25084;-77
2020/12/23 06:57:46;;;;;;;8.67;7.33;;;;;;;8.21;94.32;99816.05;1786894;80;25210;-77
2020/12/23 07:00:23;;;;;;;8.77;7.33;;;;;;;8.15;94.31;99806.34;1786950;80;26110;-77
2020/12/23 07:02:58;;;;;;;9.77;7.57;;;;;;;8.10;94.39;99807.59;1786928;79;25186;-78
2020/12/23 07:05:30;;;;;;;12.53;8.27;;;;;;;8.08;94.49;99811.63;1786944;80;26232;-78
2020/12/23 07:08:04;;;;;;;11.40;7.93;;;;;;;8.09;94.61;99821.14;1786962;79;25867;-78
2020/12/23 07:10:40;;;;;;;9.13;8.00;;;;;;;8.11;94.64;99820.59;1786578;80;26336;-78
2020/12/23 07:15:57;;;;;;;10.53;8.10;;;;;;;8.14;94.61;99812.55;1852998;77;27824;-77
2020/12/23 07:18:28;;;;;;;11.30;8.73;;;;;;;8.08;94.73;99810.79;1793953;78;26190;-77
2020/12/23 07:21:06;;;;;;;10.77;8.10;;;;;;;8.06;94.69;99822.67;1822347;78;25179;-77
2020/12/23 07:23:35;;;;;;;11.37;7.20;;;;;;;8.08;94.71;99819.48;1822454;77;25296;-77
2020/12/23 07:26:05;;;;;;;11.40;7.37;;;;;;;8.07;94.67;99819.58;1822531;77;26283;-78
2020/12/23 07:28:38;;;;;;;9.90;7.73;;;;;;;8.07;94.76;99823.02;1822475;77;25310;-78
2020/12/23 07:31:08;;;;;;;9.93;7.07;;;;;;;8.08;94.77;99823.89;1794024;78;26355;-78
2020/12/23 07:33:39;;;;;;;8.57;7.07;;;;;;;8.05;94.84;99824.08;1822457;78;25242;-78
2020/12/23 07:36:06;;;;;;;13.87;8.13;;;;;;;8.03;94.88;99824.62;1822560;78;25231;-78
2020/12/23 07:38:37;;;;;;;15.03;8.70;;;;;;;8.04;95.01;99819.28;1822441;77;26337;-76
2020/12/23 07:41:04;;;;;;;11.50;8.00;;;;;;;8.04;95.03;99823.22;1822395;77;26965;-78
2020/12/23 07:43:30;;;;;;;11.37;7.50;;;;;;;8.04;95.10;99830.24;1822441;77;26269;-78
2020/12/23 07:45:57;;;;;;;9.47;7.50;;;;;;;8.03;95.19;99828.10;1822578;78;25597;-79
2020/12/23 07:48:29;;;;;;;10.23;8.33;;;;;;;8.06;95.31;99827.91;1822373;77;26225;-77
2020/12/23 07:50:57;;;;;;;11.17;9.17;;;;;;;8.07;95.28;99831.36;1777943;79;25612;-78
2020/12/23 07:53:29;;;;;;;12.97;10.13;;;;;;;8.05;95.21;99833.25;1790101;78;25174;-78
2020/12/23 07:56:01;;;;;;;13.57;10.37;;;;;;;8.04;95.29;99837.62;1790183;79;26192;-79
2020/12/23 07:58:29;;;;;;;11.20;9.60;;;;;;;8.03;95.39;99839.03;1790076;79;25736;-77
2020/12/23 08:00:57;;;;;;;11.67;10.30;;;;;;;8.06;95.41;99840.15;1790092;79;25210;-79
2020/12/23 08:03:30;;;;;;;15.60;13.30;;;;;;;8.06;95.39;99829.22;1789999;79;25166;-79
2020/12/23 08:06:11;;;;;;;14.13;10.90;;;;;;;8.08;95.42;99838.30;1790288;79;25284;-79
2020/12/23 08:08:41;;;;;;;9.70;8.63;;;;;;;8.10;95.46;99839.86;1790287;79;25284;-79
2020/12/23 08:11:14;;;;;;;11.17;8.40;;;;;;;8.14;95.52;99839.19;1790314;79;26334;-79
2020/12/23 08:13:43;;;;;;;13.13;9.87;;;;;;;8.18;95.46;99846.77;1789982;80;25293;-78
2020/12/23 08:16:11;;;;;;;10.93;9.40;;;;;;;8.26;95.43;99844.11;1790085;79;25321;-79
2020/12/23 08:18:40;;;;;;;25.30;21.47;;;;;;;8.32;95.30;99854.20;1790187;78;25309;-79
2020/12/23 08:21:13;;;;;;;14.70;13.13;;;;;;;8.41;95.09;99852.28;1790130;80;25288;-79
2020/12/23 08:23:40;;;;;;;10.20;9.13;;;;;;;8.42;94.75;99845.28;1760661;80;25272;-79
2020/12/23 08:26:08;;;;;;;9.50;8.50;;;;;;;8.39;94.36;99843.69;1789791;80;25741;-79
2020/12/23 08:28:42;;;;;;;11.63;9.23;;;;;;;8.36;94.21;99843.88;1789420;80;26289;-79
2020/12/23 08:31:18;;;;;;;11.87;8.93;;;;;;;8.33;94.41;99844.11;1789371;80;25776;-79
2020/12/23 08:33:45;;;;;;;19.00;13.93;;;;;;;8.32;94.37;99845.03;1785458;78;25293;-79
2020/12/23 08:36:12;;;;;;;24.90;18.37;;;;;;;8.29;94.44;99841.30;1761345;79;25308;-79
2020/12/23 08:38:42;;;;;;;26.23;18.07;;;;;;;8.28;94.48;99841.78;1727631;80;25210;-79
2020/12/23 08:41:20;;;;;;;23.27;16.73;;;;;;;8.27;94.54;99836.63;1789448;80;25708;-78
2020/12/23 08:43:50;;;;;;;22.17;16.43;;;;;;;8.27;94.67;99838.77;1789602;80;26378;-78
2020/12/23 08:46:27;;;;;;;23.20;17.27;;;;;;;8.27;94.68;99840.08;1789440;80;25779;-78
2020/12/23 08:48:55;;;;;;;18.13;12.43;;;;;;;8.34;94.95;99848.39;1789567;79;25668;-78
2020/12/23 08:51:24;;;;;;;18.13;12.73;;;;;;;8.42;94.93;99849.22;1789387;78;26296;-78
2020/12/23 08:53:54;;;;;;;14.10;10.80;;;;;;;8.45;94.77;99850.36;1789345;79;25625;-77
2020/12/23 08:56:33;;;;;;;18.73;12.07;;;;;;;8.43;94.66;99852.22;1789359;79;25277;-78
2020/12/23 08:59:09;;;;;;;19.53;13.93;;;;;;;8.42;94.58;99848.73;1789420;79;26691;-79
2020/12/23 09:01:36;;;;;;;21.93;13.30;;;;;;;8.37;94.56;99845.58;1789330;80;25317;-78
2020/12/23 09:04:11;;;;;;;13.30;10.27;;;;;;;8.39;94.72;99847.62;1789368;80;25717;-79
2020/12/23 09:06:55;;;;;;;9.30;7.30;;;;;;;8.44;94.70;99845.57;1812900;79;26998;-78
2020/12/23 09:09:22;;;;;;;8.83;5.90;;;;;;;8.38;94.73;99847.72;1785848;80;26346;-76
2020/12/23 09:11:54;;;;;;;6.87;5.30;;;;;;;8.35;94.66;99846.16;1785912;80;26314;-78
2020/12/23 09:14:31;;;;;;;7.60;6.00;;;;;;;8.31;94.61;99848.13;1785879;80;26725;-77
2020/12/23 09:17:14;;;;;;;6.93;5.80;;;;;;;8.29;94.65;99842.61;1785943;80;26745;-77
2020/12/23 09:20:00;;;;;;;8.97;6.57;;;;;;;8.26;94.67;99841.49;1785782;80;26366;-77
2020/12/23 09:22:41;;;;;;;8.77;6.63;;;;;;;8.25;94.66;99845.91;1785850;80;26242;-78
2020/12/23 09:25:25;;;;;;;7.67;5.87;;;;;;;8.23;94.73;99842.99;1785904;80;25381;-78
2020/12/23 09:28:09;;;;;;;6.83;5.50;;;;;;;8.24;94.73;99849.92;1785737;80;25268;-77
2020/12/23 09:30:46;;;;;;;6.93;5.70;;;;;;;8.24;94.79;99849.45;1785826;80;26888;-78
2020/12/23 09:33:16;;;;;;;10.50;8.23;;;;;;;8.27;94.82;99844.49;1777367;80;26172;-78
2020/12/23 09:35:45;;;;;;;9.13;6.37;;;;;;;8.28;94.80;99846.16;1785875;79;25315;-78
2020/12/23 09:38:24;;;;;;;12.80;7.90;;;;;;;8.29;94.87;99842.61;1755341;80;25734;-77
2020/12/23 09:40:54;;;;;;;10.23;7.07;;;;;;;8.35;94.86;99844.84;1785736;80;25298;-78
2020/12/23 09:43:23;;;;;;;8.10;5.80;;;;;;;8.38;94.78;99845.95;1785533;80;25728;-79
2020/12/23 09:45:53;;;;;;;7.43;5.90;;;;;;;8.38;94.62;99847.27;1785924;79;26306;-78
2020/12/23 09:48:22;;;;;;;5.43;4.90;;;;;;;8.36;94.54;99845.19;1785766;80;26319;-78
2020/12/23 09:50:52;;;;;;;7.47;5.77;;;;;;;8.35;94.53;99832.57;1771528;80;25739;-77
2020/12/23 09:53:18;;;;;;;11.60;6.90;;;;;;;8.35;94.60;99835.67;1754617;81;25384;-78
2020/12/23 09:55:45;;;;;;;7.33;5.30;;;;;;;8.41;94.71;99832.63;1754777;81;25731;-78
2020/12/23 09:58:13;;;;;;;5.23;4.40;;;;;;;8.45;94.59;99835.47;1754829;81;25701;-79
2020/12/23 10:00:40;;;;;;;6.80;5.17;;;;;;;8.45;94.47;99835.47;1754718;81;25289;-78
2020/12/23 10:03:09;;;;;;;9.33;6.07;;;;;;;8.46;94.42;99830.61;1754874;81;25365;-78
2020/12/23 10:05:39;;;;;;;15.07;9.70;;;;;;;8.44;94.31;99828.53;1757989;81;26258;-78
2020/12/23 10:08:06;;;;;;;10.27;7.90;;;;;;;8.41;94.24;99822.62;1763460;81;26277;-78
2020/12/23 10:10:36;;;;;;;11.07;8.33;;;;;;;8.45;94.48;99815.80;1763387;81;25280;-78
2020/12/23 10:13:04;;;;;;;11.93;8.60;;;;;;;8.49;94.45;99820.38;1762932;81;25720;-78
2020/12/23 10:15:31;;;;;;;14.33;9.90;;;;;;;8.53;94.51;99831.88;1737842;81;25328;-77
2020/12/23 10:17:57;;;;;;;13.93;12.43;;;;;;;8.57;94.53;99831.67;1762652;81;25673;-79
2020/12/23 10:20:24;;;;;;;11.73;9.37;;;;;;;8.63;94.54;99840.42;1762843;81;26365;-79
2020/12/23 10:22:51;;;;;;;8.83;7.90;;;;;;;8.65;94.38;99839.88;1762749;81;26131;-79
2020/12/23 10:25:17;;;;;;;9.57;8.57;;;;;;;8.65;94.24;99834.16;1762953;81;25222;-79
2020/12/23 10:27:44;;;;;;;11.03;8.97;;;;;;;8.67;94.16;99821.78;1762739;81;25352;-78
2020/12/23 10:30:11;;;;;;;11.37;9.03;;;;;;;8.74;94.29;99816.96;1762750;81;26333;-78
2020/12/23 10:32:38;;;;;;;6.57;5.40;;;;;;;8.76;94.30;99807.20;1762633;81;27601;-79
2020/12/23 10:35:07;;;;;;;5.00;4.27;;;;;;;8.82;94.27;99807.28;1762831;81;26250;-79
2020/12/23 10:37:35;;;;;;;7.73;5.40;;;;;;;8.83;94.00;99803.25;1762797;81;25696;-79
2020/12/23 10:40:04;;;;;;;14.80;8.80;;;;;;;8.91;94.12;99800.95;1762910;81;25304;-79
2020/12/23 10:42:31;;;;;;;9.90;6.63;;;;;;;8.95;93.94;99795.47;1762615;81;25329;-79
2020/12/23 10:44:57;;;;;;;15.87;8.50;;;;;;;8.95;93.90;99788.45;1762633;81;25607;-79
2020/12/23 10:47:24;;;;;;;14.57;7.73;;;;;;;8.94;93.94;99782.83;1762903;81;26411;-79
2020/12/23 10:49:51;;;;;;;11.17;5.53;;;;;;;8.95;93.89;99779.28;1762905;80;25324;-78
2020/12/23 10:52:19;;;;;;;8.40;5.87;;;;;;;9.01;93.96;99772.27;1762049;81;26332;-79
2020/12/23 10:54:47;;;;;;;19.03;13.67;;;;;;;9.05;93.76;99769.83;1762990;81;25226;-78
2020/12/23 10:57:14;;;;;;;28.07;21.47;;;;;;;9.04;93.47;99766.82;1762704;81;25757;-78
2020/12/23 10:59:41;;;;;;;15.63;12.27;;;;;;;9.07;93.49;99770.55;1762786;81;27520;-78
2020/12/23 11:02:08;;;;;;;10.87;7.87;;;;;;;9.05;93.36;99764.58;1762950;81;26257;-78
2020/12/23 11:04:36;;;;;;;7.43;5.27;;;;;;;9.03;93.37;99762.98;1762876;81;26366;-77
2020/12/23 11:07:03;;;;;;;6.90;4.20;;;;;;;9.00;93.35;99765.37;1755589;81;25281;-79
2020/12/23 11:09:29;;;;;;;5.47;4.00;;;;;;;9.00;93.49;99756.63;1754171;81;26321;-78
2020/12/23 11:11:56;;;;;;;5.80;4.40;;;;;;;9.02;93.49;99763.95;1754246;81;25728;-78
2020/12/23 11:14:23;;;;;;;6.30;4.53;;;;;;;9.04;93.58;99758.13;1754147;81;26266;-78
2020/12/23 11:16:52;;;;;;;7.77;4.53;;;;;;;9.03;93.47;99757.74;1754178;81;25350;-79
2020/12/23 11:19:22;;;;;;;7.50;4.87;;;;;;;8.98;93.45;99754.15;1725493;81;25241;-78
2020/12/23 11:21:49;;;;;;;9.03;5.70;;;;;;;8.97;93.49;99757.70;1754152;81;25100;-78
2020/12/23 11:24:17;;;;;;;6.83;4.03;;;;;;;9.03;93.59;99756.43;1754131;81;25310;-78
2020/12/23 11:26:43;;;;;;;6.50;4.80;;;;;;;9.04;93.32;99752.39;1754198;81;25297;-77
2020/12/23 11:29:10;;;;;;;6.87;4.90;;;;;;;9.00;93.34;99752.70;1754186;81;26376;-78
2020/12/23 11:31:37;;;;;;;7.70;5.37;;;;;;;8.99;93.22;99747.94;1754134;80;25731;-78
2020/12/23 11:34:03;;;;;;;7.73;5.73;;;;;;;8.97;93.18;99739.83;1754268;81;25290;-78
2020/12/23 11:36:30;;;;;;;8.83;6.23;;;;;;;8.94;93.25;99737.41;1754282;81;25195;-79
2020/12/23 11:38:57;;;;;;;9.57;7.53;;;;;;;8.94;93.32;99739.55;1754245;81;25214;-78
2020/12/23 11:41:24;;;;;;;9.67;7.83;;;;;;;8.95;93.35;99748.25;1754246;81;25262;-79
2020/12/23 11:43:52;;;;;;;13.00;9.27;;;;;;;8.96;93.45;99744.69;1754182;81;25653;-80